METAR Data

Data at: 1740 UTC 21 Nov 2018

METAR for:CYFC (Fredericton Intl, NB, CN)
Text:CYFC 211714Z AUTO 27006KT 9SM -SN BKN030 OVC037 M03/M06 A2977 RMK SLP084
Temperature: -3.0°C ( 27°F)
Dewpoint: -6.0°C ( 21°F) [RH = 80%]
Pressure (altimeter):29.77 inches Hg (1008.2 mb) [Sea level pressure: 1008.4 mb]
Winds:from the W (270 degrees) at 7 MPH (6 knots; 3.1 m/s)
Visibility: 9 sm ( 14 km)
Ceiling:3000 feet AGL
Clouds: broken clouds at 3000 feet AGL, overcast cloud deck at 3700 feet AGL
Weather:-SN (light snow)